| time (UTC) | temp F | wind direction | speed MPH | gust MPH | rain 1hr in | rain 24hr in | rain mn in | humidity % | barometer mb |
| 20260506073059 | 55 | 223 | 1.0 | 5.0 | 0.00 | 0.00 | 0.00 | 80 | 1014.1 |
| 20260506071559 | 55 | 258 | 1.0 | 3.0 | 0.00 | 0.00 | 0.00 | 81 | 1014.0 |
| 20260506061555 | 55 | 285 | 8.0 | 14.0 | 0.00 | 0.00 | 0.00 | 82 | 1013.5 |
| 20260506044548 | 60 | 49 | 1.0 | 7.0 | 0.00 | 0.00 | 0.00 | 69 | 1012.9 |
| 20260506043049 | 60 | 20 | 2.0 | 8.0 | 0.00 | 0.00 | 0.00 | 67 | 1012.7 |
| 20260506041601 | 61 | 124 | 1.0 | 7.0 | 0.00 | 0.00 | 0.00 | 68 | 1012.6 |
| 20260506040047 | 61 | 101 | 2.0 | 7.0 | 0.00 | 0.00 | 0.00 | 67 | 1012.5 |
| 20260506034548 | 62 | 172 | 1.0 | 8.0 | 0.00 | 0.00 | 0.00 | 67 | 1012.4 |
| 20260506033046 | 63 | 144 | 2.0 | 8.0 | 0.00 | 0.00 | 0.00 | 65 | 1012.3 |
| 20260506031547 | 63 | 325 | 4.0 | 10.0 | 0.00 | 0.00 | 0.00 | 64 | 1012.2 |
| 20260506030045 | 64 | 319 | 4.0 | 17.0 | 0.00 | 0.00 | 0.00 | 63 | 1012.1 |
| 20260506024545 | 65 | 259 | 7.0 | 13.0 | 0.00 | 0.00 | 0.00 | 62 | 1012.0 |
| 20260506023101 | 66 | 284 | 4.0 | 12.0 | 0.00 | 0.00 | 0.00 | 61 | 1012.2 |
| 20260506021606 | 67 | 335 | 4.0 | 11.0 | 0.00 | 0.00 | 0.00 | 60 | 1012.1 |
| 20260506020044 | 68 | 275 | 4.0 | 17.0 | 0.00 | 0.00 | 0.00 | 60 | 1012.2 |
| 20260506014543 | 68 | 287 | 6.0 | 15.0 | 0.00 | 0.00 | 0.00 | 58 | 1012.2 |
| 20260506013053 | 69 | 229 | 6.0 | 13.0 | 0.00 | 0.00 | 0.00 | 57 | 1012.3 |
| 20260506011548 | 70 | 263 | 3.0 | 13.0 | 0.00 | 0.00 | 0.00 | 56 | 1012.3 |
| 20260506010042 | 70 | 184 | 4.0 | 14.0 | 0.00 | 0.00 | 0.00 | 56 | 1012.4 |
| 20260506004541 | 70 | 195 | 5.0 | 19.0 | 0.00 | 0.00 | 0.00 | 55 | 1012.4 |
| 20260506003042 | 70 | 247 | 4.0 | 14.0 | 0.00 | 0.00 | 0.00 | 54 | 1012.5 |
| 20260506001541 | 70 | 260 | 5.0 | 12.0 | 0.00 | 0.00 | 0.00 | 54 | 1012.7 |
| 20260506000044 | 70 | 291 | 7.0 | 18.0 | 0.00 | 0.00 | 0.00 | 54 | 1012.9 |
| 20260505234540 | 70 | 282 | 4.0 | 12.0 | 0.00 | 0.00 | 0.00 | 55 | 1013.0 |
| 20260505233039 | 70 | 256 | 7.0 | 11.0 | 0.00 | 0.00 | 0.00 | 54 | 1013.2 |
| 20260505231549 | 70 | 215 | 5.0 | 13.0 | 0.00 | 0.00 | 0.00 | 55 | 1013.4 |
| 20260505230036 | 70 | 273 | 6.0 | 12.0 | 0.00 | 0.00 | 0.00 | 55 | 1013.4 |
| 20260505224535 | 70 | 250 | 6.0 | 13.0 | 0.00 | 0.00 | 0.00 | 55 | 1013.5 |
| 20260505223034 | 70 | 228 | 5.0 | 15.0 | 0.00 | 0.00 | 0.00 | 56 | 1013.6 |
| 20260505221534 | 70 | 145 | 3.0 | 15.0 | 0.00 | 0.00 | 0.00 | 58 | 1013.8 |
| 20260505220032 | 69 | 250 | 4.0 | 11.0 | 0.00 | 0.00 | 0.00 | 59 | 1014.0 |
| 20260505214542 | 68 | 225 | 5.0 | 13.0 | 0.00 | 0.00 | 0.00 | 60 | 1014.0 |
| 20260505213036 | 69 | 265 | 3.0 | 12.0 | 0.00 | 0.00 | 0.00 | 60 | 1014.0 |
| 20260505211528 | 69 | 279 | 4.0 | 11.0 | 0.00 | 0.00 | 0.00 | 60 | 1014.1 |
| 20260505210026 | 67 | 211 | 6.0 | 11.0 | 0.00 | 0.00 | 0.00 | 60 | 1014.3 |
| 20260505204526 | 67 | 209 | 3.0 | 12.0 | 0.00 | 0.00 | 0.00 | 61 | 1014.4 |
| 20260505203030 | 67 | 197 | 5.0 | 10.0 | 0.00 | 0.00 | 0.00 | 61 | 1014.4 |
| 20260505201531 | 66 | 210 | 2.0 | 9.0 | 0.00 | 0.00 | 0.00 | 63 | 1014.4 |
| 20260505200022 | 66 | 175 | 7.0 | 14.0 | 0.00 | 0.00 | 0.00 | 63 | 1014.5 |
| 20260505194521 | 65 | 232 | 5.0 | 11.0 | 0.00 | 0.00 | 0.00 | 64 | 1014.4 |
| 20260505193029 | 65 | 268 | 5.0 | 13.0 | 0.00 | 0.00 | 0.00 | 64 | 1014.5 |
| 20260505191520 | 66 | 207 | 4.0 | 9.0 | 0.00 | 0.00 | 0.00 | 63 | 1014.5 |
| 20260505190017 | 65 | 275 | 3.0 | 10.0 | 0.00 | 0.00 | 0.00 | 66 | 1014.5 |
| 20260505184516 | 64 | 220 | 6.0 | 12.0 | 0.00 | 0.00 | 0.00 | 66 | 1014.4 |
| 20260505183020 | 64 | 278 | 4.0 | 12.0 | 0.00 | 0.00 | 0.00 | 65 | 1014.4 |
| 20260505181512 | 64 | 261 | 3.0 | 11.0 | 0.00 | 0.00 | 0.00 | 68 | 1014.2 |
| 20260505180017 | 63 | 203 | 4.0 | 12.0 | 0.00 | 0.00 | 0.00 | 67 | 1014.2 |
| 20260505174510 | 63 | 256 | 3.0 | 10.0 | 0.00 | 0.00 | 0.00 | 67 | 1014.2 |
| 20260505173009 | 63 | 224 | 2.0 | 10.0 | 0.00 | 0.00 | 0.00 | 69 | 1014.1 |
| 20260505171507 | 62 | 175 | 5.0 | 12.0 | 0.00 | 0.00 | 0.00 | 68 | 1014.0 |
| 20260505170015 | 62 | 188 | 5.0 | 10.0 | 0.00 | 0.00 | 0.00 | 70 | 1014.0 |
| 20260505164507 | 61 | 151 | 3.0 | 12.0 | 0.00 | 0.00 | 0.00 | 72 | 1014.0 |
| 20260505163009 | 61 | 178 | 5.0 | 10.0 | 0.00 | 0.00 | 0.00 | 73 | 1013.9 |
| 20260505161505 | 61 | 139 | 4.0 | 12.0 | 0.00 | 0.00 | 0.00 | 72 | 1014.0 |
| 20260505153003 | 59 | 239 | 3.0 | 6.0 | 0.00 | 0.00 | 0.00 | 75 | 1013.6 |
| 20260505151502 | 58 | 292 | 2.0 | 5.0 | 0.00 | 0.00 | 0.00 | 76 | 1013.5 |
| 20260505140107 | 58 | 338 | 0.0 | 2.0 | 0.00 | 0.00 | 0.00 | 79 | 1012.4 |
| 20260505124554 | 54 | 254 | 2.0 | 8.0 | 0.00 | 0.00 | 0.00 | 80 | 1011.8 |
| 20260505123051 | 55 | 247 | 2.0 | 4.0 | 0.00 | 0.00 | 0.00 | 79 | 1011.7 |
| 20260505121601 | 56 | 251 | 1.0 | 4.0 | 0.00 | 0.00 | 0.00 | 76 | 1011.6 |
| 20260505120047 | 56 | 230 | 2.0 | 6.0 | 0.00 | 0.00 | 0.00 | 76 | 1011.4 |
| 20260505114546 | 55 | 275 | 2.0 | 5.0 | 0.00 | 0.00 | 0.00 | 78 | 1011.3 |
| 20260505113043 | 56 | 294 | 0.0 | 2.0 | 0.00 | 0.00 | 0.00 | 77 | 1011.0 |
| 20260505111544 | 56 | 294 | 1.0 | 7.0 | 0.00 | 0.00 | 0.00 | 76 | 1010.8 |
| 20260505101540 | 57 | 242 | 2.0 | 4.0 | 0.00 | 0.00 | 0.00 | 74 | 1010.2 |
| 20260505100035 | 58 | 74 | 0.0 | 0.0 | 0.00 | 0.00 | 0.00 | 72 | 1009.9 |
| 20260505094532 | 58 | 74 | 1.0 | 3.0 | 0.00 | 0.00 | 0.00 | 71 | 1009.8 |
| 20260505093039 | 58 | 280 | 0.0 | 4.0 | 0.00 | 0.00 | 0.00 | 71 | 1009.8 |
| 20260505091529 | 59 | 265 | 1.0 | 9.0 | 0.00 | 0.00 | 0.00 | 69 | 1009.8 |
| 20260505090024 | 59 | 286 | 4.0 | 15.0 | 0.00 | 0.00 | 0.00 | 67 | 1009.7 |
| 20260505084522 | 59 | 297 | 3.0 | 11.0 | 0.00 | 0.00 | 0.00 | 66 | 1009.6 |
| 20260505083018 | 60 | 303 | 5.0 | 13.0 | 0.00 | 0.00 | 0.00 | 63 | 1009.3 |
| 20260505081521 | 61 | 269 | 7.0 | 13.0 | 0.00 | 0.00 | 0.00 | 60 | 1009.3 |
| 20260505080014 | 61 | 246 | 9.0 | 15.0 | 0.00 | 0.00 | 0.00 | 58 | 1009.1 |